createdAt,value
2018-04-27T00:01:53.989Z,7.73
2018-04-27T00:04:21.549Z,7.67
2018-04-27T00:06:49.348Z,9.20
2018-04-27T00:09:18.345Z,8.00
2018-04-27T00:11:45.901Z,6.80
2018-04-27T00:14:13.433Z,4.97
2018-04-27T00:16:40.970Z,7.77
2018-04-27T00:19:08.927Z,9.67
2018-04-27T00:21:36.662Z,5.87
2018-04-27T00:24:04.971Z,7.80
2018-04-27T00:26:33.314Z,7.03
2018-04-27T00:29:00.861Z,11.97
2018-04-27T00:31:28.712Z,6.13
2018-04-27T00:33:56.842Z,7.30
2018-04-27T00:36:24.706Z,11.87
2018-04-27T00:38:52.280Z,11.80
2018-04-27T00:41:19.924Z,7.63
2018-04-27T00:43:48.220Z,6.03
2018-04-27T00:46:16.029Z,7.93
2018-04-27T00:48:48.798Z,8.17
2018-04-27T00:51:16.325Z,9.57
2018-04-27T00:53:43.870Z,7.47
2018-04-27T00:56:12.158Z,8.90
2018-04-27T00:59:00.452Z,8.27
2018-04-27T01:01:28.606Z,8.93
2018-04-27T01:03:56.768Z,9.40
2018-04-27T01:06:26.055Z,9.00
2018-04-27T01:08:54.963Z,8.53
2018-04-27T01:11:22.987Z,13.33
2018-04-27T01:13:51.857Z,6.73
2018-04-27T01:16:19.399Z,7.93
2018-04-27T01:18:47.641Z,11.63
2018-04-27T01:21:16.104Z,10.67
2018-04-27T01:23:44.179Z,11.57
2018-04-27T01:26:14.081Z,9.43
2018-04-27T01:28:41.623Z,12.30
2018-04-27T01:40:52.230Z,10.97
2018-04-27T01:43:20.638Z,11.33
2018-04-27T01:45:48.548Z,6.53
2018-04-27T01:48:16.073Z,7.33
2018-04-27T01:50:44.094Z,9.23
2018-04-27T01:53:13.190Z,7.50
2018-04-27T01:55:41.549Z,7.00
2018-04-27T01:58:09.164Z,7.87
2018-04-27T02:00:36.686Z,11.07
2018-04-27T02:03:04.222Z,6.70
2018-04-27T02:05:32.147Z,6.83
2018-04-27T02:08:00.278Z,9.23
2018-04-27T02:10:27.993Z,9.10
2018-04-27T02:12:56.478Z,6.53
2018-04-27T02:15:27.356Z,7.17
2018-04-27T02:17:55.702Z,8.60
2018-04-27T02:20:25.144Z,11.00
2018-04-27T02:22:53.854Z,6.57
2018-04-27T02:25:21.715Z,8.70
2018-04-27T02:27:49.224Z,8.23
2018-04-27T02:30:16.769Z,6.77
2018-04-27T02:32:44.632Z,10.93
2018-04-27T02:35:17.661Z,10.73
2018-04-27T02:37:45.209Z,6.80
2018-04-27T02:40:14.694Z,8.20
2018-04-27T02:42:43.758Z,11.93
2018-04-27T02:45:25.521Z,8.53
2018-04-27T02:47:53.294Z,9.77
2018-04-27T02:50:20.840Z,11.93
2018-04-27T02:52:48.853Z,7.63
2018-04-27T02:55:17.118Z,10.43
2018-04-27T02:57:44.651Z,5.80
2018-04-27T03:03:01.995Z,9.43
2018-04-27T03:05:29.735Z,10.37
2018-04-27T03:07:58.417Z,8.03
2018-04-27T03:10:26.456Z,5.63
2018-04-27T03:12:55.153Z,5.80
2018-04-27T03:15:23.516Z,7.00
2018-04-27T03:17:51.397Z,9.37
2018-04-27T03:20:19.709Z,5.87
2018-04-27T03:22:47.265Z,9.93
2018-04-27T03:25:15.875Z,8.50
2018-04-27T03:27:44.626Z,9.07
2018-04-27T03:30:12.204Z,10.03
2018-04-27T03:32:40.447Z,11.20
2018-04-27T03:35:08.762Z,5.90
2018-04-27T03:37:36.298Z,7.00
2018-04-27T03:40:04.596Z,6.03
2018-04-27T03:42:33.627Z,6.60
2018-04-27T03:45:01.152Z,8.90
2018-04-27T03:47:28.741Z,6.50
2018-04-27T03:49:57.037Z,7.70
2018-04-27T03:52:26.995Z,9.20
2018-04-27T03:54:54.539Z,10.00
2018-04-27T03:57:22.958Z,10.23
2018-04-27T04:00:02.385Z,7.93
2018-04-27T04:02:42.608Z,8.90
2018-04-27T04:05:35.299Z,9.13
2018-04-27T04:08:04.101Z,10.60
2018-04-27T04:10:33.429Z,10.20
2018-04-27T04:13:01.336Z,9.87
2018-04-27T04:15:30.009Z,12.47
2018-04-27T04:17:58.411Z,8.27
2018-04-27T04:20:26.195Z,8.73
2018-04-27T04:22:53.732Z,10.83
2018-04-27T04:25:23.706Z,8.70
2018-04-27T04:27:52.028Z,7.53
2018-04-27T04:30:19.566Z,8.53
2018-04-27T04:32:47.111Z,9.13
2018-04-27T04:35:14.659Z,9.70
2018-04-27T04:37:43.795Z,12.50
2018-04-27T04:40:11.363Z,9.57
2018-04-27T04:42:38.900Z,10.57
2018-04-27T04:45:06.825Z,7.67
2018-04-27T04:47:34.664Z,6.20
2018-04-27T04:50:02.233Z,7.37
2018-04-27T04:52:38.716Z,10.30
2018-04-27T04:55:06.791Z,7.37
2018-04-27T04:57:34.568Z,7.17
2018-04-27T05:00:02.232Z,8.67
2018-04-27T05:02:31.768Z,11.13
2018-04-27T05:05:00.285Z,7.13
2018-04-27T05:07:28.413Z,10.37
2018-04-27T05:09:58.047Z,8.30
2018-04-27T05:12:26.116Z,7.93
2018-04-27T05:14:57.389Z,7.27
2018-04-27T05:18:01.166Z,7.90
2018-04-27T05:20:29.636Z,7.00
2018-04-27T05:22:57.189Z,5.27
2018-04-27T05:25:25.360Z,3.97
2018-04-27T05:27:52.893Z,7.13
2018-04-27T05:30:20.771Z,3.30
2018-04-27T05:32:49.165Z,6.87
2018-04-27T05:35:16.700Z,7.40
2018-04-27T05:37:44.901Z,3.77
2018-04-27T05:40:12.572Z,4.60
2018-04-27T05:42:44.601Z,5.23
2018-04-27T05:45:13.856Z,3.77
2018-04-27T05:47:45.251Z,7.80
2018-04-27T05:50:17.728Z,2.90
2018-04-27T05:52:45.256Z,6.20
2018-04-27T05:55:12.910Z,5.90
2018-04-27T05:57:41.685Z,3.90
2018-04-27T06:00:10.588Z,5.33
2018-04-27T06:02:43.785Z,5.83
2018-04-27T06:05:20.597Z,8.20
2018-04-27T06:07:54.216Z,5.27
2018-04-27T06:10:26.853Z,3.43
2018-04-27T06:13:03.104Z,4.63
2018-04-27T06:15:40.305Z,3.67
2018-04-27T06:18:07.845Z,4.47
2018-04-27T06:20:45.588Z,4.83
2018-04-27T06:23:20.993Z,5.80
2018-04-27T06:25:59.060Z,7.13
2018-04-27T06:28:36.647Z,5.93
2018-04-27T06:31:04.184Z,5.23
2018-04-27T06:33:44.474Z,3.60
2018-04-27T06:36:17.770Z,5.37
2018-04-27T06:38:51.894Z,5.47
2018-04-27T06:41:25.361Z,5.63
2018-04-27T06:44:03.466Z,8.57
2018-04-27T06:46:36.201Z,3.90
2018-04-27T06:49:11.802Z,4.07
2018-04-27T06:51:46.976Z,8.53
2018-04-27T06:54:19.122Z,6.67
2018-04-27T06:56:53.651Z,4.77
2018-04-27T06:59:28.729Z,5.27
2018-04-27T07:02:02.807Z,5.87
2018-04-27T07:04:42.104Z,8.67
2018-04-27T07:07:15.339Z,4.27
2018-04-27T07:09:47.960Z,6.83
2018-04-27T07:12:23.363Z,7.87
2018-04-27T07:14:52.441Z,7.47
2018-04-27T07:17:20.595Z,8.70
2018-04-27T07:19:48.747Z,4.63
2018-04-27T07:22:17.062Z,5.07
2018-04-27T07:24:45.368Z,6.33
2018-04-27T07:27:14.758Z,8.73
2018-04-27T07:29:50.076Z,7.67
2018-04-27T07:32:24.537Z,4.20
2018-04-27T07:35:34.066Z,5.57
2018-04-27T07:38:08.651Z,5.53
2018-04-27T07:40:41.476Z,10.63
2018-04-27T07:43:09.033Z,7.17
2018-04-27T07:45:36.567Z,6.17
2018-04-27T07:48:05.313Z,7.03
2018-04-27T07:50:32.863Z,6.97
2018-04-27T07:53:01.263Z,5.97
2018-04-27T07:55:31.414Z,6.97
2018-04-27T07:58:00.830Z,6.03
2018-04-27T08:00:29.161Z,6.03
2018-04-27T08:02:57.461Z,5.70
2018-04-27T08:05:42.759Z,7.90
2018-04-27T08:08:10.307Z,5.90
2018-04-27T08:10:38.560Z,5.30
2018-04-27T08:13:06.939Z,7.03
2018-04-27T08:15:45.241Z,8.43
2018-04-27T08:18:13.601Z,6.27
2018-04-27T08:21:02.959Z,9.33
2018-04-27T08:23:30.713Z,4.60
2018-04-27T08:25:59.725Z,5.27
2018-04-27T08:28:34.445Z,12.00
2018-04-27T08:31:03.682Z,5.03
2018-04-27T08:33:31.835Z,6.87
2018-04-27T08:36:37.753Z,4.13
2018-04-27T08:39:05.317Z,5.93
2018-04-27T08:41:32.848Z,6.13
2018-04-27T08:44:03.573Z,6.43
2018-04-27T08:46:34.453Z,4.50
2018-04-27T08:49:02.615Z,6.10
2018-04-27T08:51:30.601Z,6.27
2018-04-27T08:53:58.152Z,5.43
2018-04-27T08:56:27.243Z,4.27
2018-04-27T08:58:58.232Z,8.47
2018-04-27T09:01:25.771Z,4.33
2018-04-27T09:03:53.308Z,6.63
2018-04-27T09:06:20.886Z,4.00
2018-04-27T09:08:53.147Z,3.67
2018-04-27T09:11:25.362Z,7.40
2018-04-27T09:13:53.571Z,10.37
2018-04-27T09:16:21.614Z,16.80
2018-04-27T09:18:51.267Z,8.83
2018-04-27T09:21:27.839Z,6.63
2018-04-27T09:23:59.378Z,7.43
2018-04-27T09:26:27.434Z,7.33
2018-04-27T09:28:56.650Z,6.53
2018-04-27T09:31:32.184Z,6.77
2018-04-27T09:34:04.827Z,6.23
2018-04-27T09:36:34.700Z,8.10
2018-04-27T09:39:02.321Z,6.43
2018-04-27T09:41:29.864Z,8.03
2018-04-27T09:43:58.090Z,6.83
2018-04-27T09:46:25.850Z,6.67
2018-04-27T09:48:53.685Z,10.00
2018-04-27T09:51:21.225Z,7.07
2018-04-27T09:53:48.751Z,8.57
2018-04-27T09:56:18.710Z,9.43
2018-04-27T09:58:51.077Z,9.20
2018-04-27T10:01:24.383Z,4.80
2018-04-27T10:03:58.361Z,6.70
2018-04-27T10:06:26.798Z,9.13
2018-04-27T10:08:54.304Z,11.17
2018-04-27T10:11:21.858Z,9.83
2018-04-27T10:13:51.432Z,8.97
2018-04-27T10:16:25.286Z,7.00
2018-04-27T10:19:00.881Z,9.30
2018-04-27T10:21:36.857Z,11.97
2018-04-27T10:24:11.104Z,10.50
2018-04-27T10:26:40.529Z,9.43
2018-04-27T10:29:08.858Z,10.93
2018-04-27T10:31:36.877Z,8.40
2018-04-27T10:34:04.492Z,10.33
2018-04-27T10:36:35.795Z,7.63
2018-04-27T10:39:07.477Z,9.17
2018-04-27T10:41:42.976Z,12.43
2018-04-27T10:44:21.514Z,10.10
2018-04-27T10:46:52.143Z,8.90
2018-04-27T10:49:29.814Z,11.73
2018-04-27T10:51:58.254Z,8.07
2018-04-27T10:54:26.680Z,10.73
2018-04-27T10:56:55.576Z,9.43
2018-04-27T10:59:29.966Z,8.63
2018-04-27T11:01:58.861Z,10.17
2018-04-27T11:04:28.453Z,8.23
2018-04-27T11:07:00.956Z,12.90
2018-04-27T11:09:35.501Z,6.93
2018-04-27T11:12:12.183Z,7.30
2018-04-27T11:14:44.498Z,8.37
2018-04-27T11:17:16.178Z,9.43
2018-04-27T11:22:31.876Z,7.93
2018-04-27T11:25:06.555Z,8.87
2018-04-27T11:27:35.753Z,8.20
2018-04-27T11:30:05.074Z,9.50
2018-04-27T11:32:34.347Z,11.20
2018-04-27T11:35:07.303Z,7.03
2018-04-27T11:37:37.675Z,8.53
2018-04-27T11:40:08.604Z,7.40
2018-04-27T11:42:40.612Z,8.90
2018-04-27T11:45:15.398Z,10.23
2018-04-27T11:47:46.744Z,8.13
2018-04-27T11:50:17.930Z,8.33
2018-04-27T11:52:48.293Z,8.47
2018-04-27T11:55:18.859Z,8.97
2018-04-27T11:57:47.755Z,8.27
2018-04-27T12:00:16.765Z,8.10
2018-04-27T12:02:46.152Z,6.47
2018-04-27T12:05:16.170Z,6.47
2018-04-27T12:07:51.930Z,7.60
2018-04-27T12:10:27.895Z,8.47
2018-04-27T12:13:04.954Z,8.10
2018-04-27T12:15:38.460Z,7.83
2018-04-27T12:18:07.563Z,6.90
2018-04-27T12:20:38.652Z,8.43
2018-04-27T12:23:08.179Z,10.20
2018-04-27T12:26:00.313Z,8.30
2018-04-27T12:28:29.604Z,10.57
2018-04-27T12:33:43.445Z,7.83
2018-04-27T12:36:16.896Z,9.33
2018-04-27T12:38:53.623Z,8.27
2018-04-27T12:41:23.622Z,9.00
2018-04-27T12:44:00.984Z,8.37
2018-04-27T12:46:39.085Z,12.33
2018-04-27T12:49:10.974Z,13.20
2018-04-27T12:51:47.649Z,10.93
2018-04-27T12:54:53.731Z,9.27
2018-04-27T12:57:27.277Z,10.70
2018-04-27T13:00:05.544Z,9.93
2018-04-27T13:02:37.529Z,7.97
2018-04-27T13:05:09.009Z,7.90
2018-04-27T13:07:39.039Z,12.37
2018-04-27T13:10:20.592Z,7.60
2018-04-27T13:12:50.856Z,9.67
2018-04-27T13:15:27.635Z,11.17
2018-04-27T13:18:06.260Z,8.67
2018-04-27T13:20:35.489Z,8.63
2018-04-27T13:23:12.604Z,8.33
2018-04-27T13:25:48.008Z,6.73
2018-04-27T13:28:23.539Z,6.47
2018-04-27T13:30:56.150Z,7.50
2018-04-27T13:33:26.168Z,12.90
2018-04-27T13:36:07.328Z,10.00
2018-04-27T13:38:41.188Z,9.90
2018-04-27T13:41:16.015Z,11.33
2018-04-27T13:43:48.375Z,9.40
2018-04-27T13:46:18.878Z,10.70
2018-04-27T13:48:47.775Z,8.67
2018-04-27T13:51:17.836Z,8.80
2018-04-27T13:53:48.981Z,9.57
2018-04-27T13:56:18.885Z,12.07
2018-04-27T13:58:50.338Z,10.53
2018-04-27T14:01:19.220Z,11.37
2018-04-27T14:03:48.215Z,12.10
2018-04-27T14:06:17.614Z,9.47
2018-04-27T14:08:49.248Z,10.40
2018-04-27T14:11:19.371Z,10.23
2018-04-27T14:13:48.188Z,9.33
2018-04-27T14:16:24.596Z,8.53
2018-04-27T14:19:01.497Z,10.37
2018-04-27T14:21:32.708Z,10.13
2018-04-27T14:24:09.590Z,10.50
2018-04-27T14:26:44.919Z,10.53
2018-04-27T14:29:19.695Z,7.77
2018-04-27T14:31:56.748Z,7.80
2018-04-27T14:34:28.862Z,8.97
2018-04-27T14:37:00.545Z,7.47
2018-04-27T14:39:29.439Z,6.50
2018-04-27T14:41:59.184Z,9.53
2018-04-27T14:44:28.084Z,9.00
2018-04-27T14:46:57.577Z,8.93
2018-04-27T14:49:27.591Z,9.53
2018-04-27T14:51:58.936Z,13.07
2018-04-27T14:54:29.607Z,9.30
2018-04-27T14:56:58.674Z,10.47
2018-04-27T14:59:28.965Z,8.97
2018-04-27T15:01:58.237Z,9.00
2018-04-27T15:04:27.646Z,9.90
2018-04-27T15:06:58.899Z,7.47
2018-04-27T15:09:32.814Z,11.57
2018-04-27T15:12:06.112Z,9.13
2018-04-27T15:14:36.392Z,7.17
2018-04-27T15:17:06.462Z,9.70
2018-04-27T15:19:37.330Z,9.07
2018-04-27T15:22:08.693Z,10.40
2018-04-27T15:24:38.084Z,8.77
2018-04-27T15:27:07.555Z,8.10
2018-04-27T15:29:40.813Z,9.23
2018-04-27T15:32:15.993Z,9.30
2018-04-27T15:34:47.014Z,10.27
2018-04-27T15:37:23.793Z,9.83
2018-04-27T15:39:54.412Z,8.27
2018-04-27T15:42:46.825Z,8.87
2018-04-27T15:45:16.271Z,8.70
2018-04-27T15:47:47.825Z,9.50
2018-04-27T15:50:22.921Z,10.90
2018-04-27T15:52:52.052Z,10.90
2018-04-27T15:55:27.455Z,10.57
2018-04-27T15:58:02.073Z,11.23
2018-04-27T16:00:32.676Z,7.80
2018-04-27T16:03:09.473Z,9.53
2018-04-27T16:05:44.061Z,11.07
2018-04-27T16:08:21.085Z,10.27
2018-04-27T16:10:56.211Z,9.73
2018-04-27T16:14:03.316Z,10.60
2018-04-27T16:16:43.114Z,8.50
2018-04-27T16:19:17.209Z,8.20
2018-04-27T16:21:46.478Z,7.20
2018-04-27T16:24:22.409Z,7.63
2018-04-27T16:26:56.942Z,10.00
2018-04-27T16:29:47.317Z,8.20
2018-04-27T16:32:19.540Z,6.97
2018-04-27T16:34:49.131Z,8.33
2018-04-27T16:37:21.192Z,8.27
2018-04-27T16:39:55.560Z,6.10
2018-04-27T16:42:24.782Z,6.23
2018-04-27T16:44:59.659Z,6.73
2018-04-27T16:47:33.243Z,5.57
2018-04-27T16:50:07.181Z,5.13
2018-04-27T16:52:40.119Z,7.40
2018-04-27T16:55:14.401Z,5.40
2018-04-27T16:57:49.024Z,5.97
2018-04-27T17:00:29.097Z,3.93
2018-04-27T17:02:58.913Z,7.47
2018-04-27T17:05:28.094Z,6.13
2018-04-27T17:07:57.062Z,4.63
2018-04-27T17:10:26.897Z,6.33
2018-04-27T17:12:55.784Z,4.60
2018-04-27T17:15:27.663Z,5.93
2018-04-27T17:17:58.154Z,5.93
2018-04-27T17:20:32.204Z,7.00
2018-04-27T17:23:09.067Z,6.23
2018-04-27T17:25:41.816Z,4.50
2018-04-27T17:28:19.194Z,3.50
2018-04-27T17:31:10.122Z,4.10
2018-04-27T17:33:39.320Z,4.87
2018-04-27T17:36:08.192Z,3.53
2018-04-27T17:38:37.925Z,4.93
2018-04-27T17:41:07.525Z,3.20
2018-04-27T17:43:43.928Z,5.63
2018-04-27T17:46:36.512Z,7.13
2018-04-27T17:49:06.351Z,8.40
2018-04-27T17:51:37.142Z,3.33
2018-04-27T17:54:06.023Z,5.03
2018-04-27T17:56:37.936Z,3.77
2018-04-27T17:59:13.146Z,5.23
2018-04-27T18:01:48.553Z,3.43
2018-04-27T18:04:24.488Z,3.47
2018-04-27T18:07:01.083Z,4.17
2018-04-27T18:09:32.393Z,3.87
2018-04-27T18:12:09.917Z,4.63
2018-04-27T18:14:38.753Z,6.30
2018-04-27T18:17:16.849Z,4.90
2018-04-27T18:19:54.436Z,6.57
2018-04-27T18:22:27.038Z,4.80
2018-04-27T18:25:06.633Z,5.50
2018-04-27T18:27:37.590Z,5.50
2018-04-27T18:30:09.878Z,6.43
2018-04-27T18:32:44.633Z,4.90
2018-04-27T18:35:18.963Z,4.90
2018-04-27T18:37:51.634Z,6.67
2018-04-27T18:40:29.151Z,7.50
2018-04-27T18:43:02.052Z,5.50
2018-04-27T18:45:49.205Z,5.57
2018-04-27T18:48:27.077Z,5.80
2018-04-27T18:50:57.345Z,6.00
2018-04-27T18:53:28.059Z,6.93
2018-04-27T18:55:59.737Z,5.90
2018-04-27T18:58:33.037Z,7.40
2018-04-27T19:06:24.240Z,8.03
2018-04-27T19:08:54.440Z,7.50
2018-04-27T19:11:27.272Z,7.93
2018-04-27T19:13:56.190Z,12.73
2018-04-27T19:16:26.609Z,13.53
2018-04-27T19:19:00.038Z,11.13
2018-04-27T19:21:30.092Z,10.30
2018-04-27T19:23:59.213Z,12.07
2018-04-27T19:26:28.108Z,11.33
2018-04-27T19:29:01.929Z,12.43
2018-04-27T19:31:40.030Z,11.23
2018-04-27T19:34:12.532Z,11.00
2018-04-27T19:36:45.566Z,10.40
2018-04-27T19:39:16.061Z,14.73
2018-04-27T19:41:45.325Z,11.30
2018-04-27T19:44:15.149Z,9.50
2018-04-27T19:46:44.049Z,10.53
2018-04-27T19:49:14.761Z,10.40
2018-04-27T19:51:48.062Z,10.80
2018-04-27T19:54:19.709Z,9.93
2018-04-27T19:56:54.600Z,10.50
2018-04-27T19:59:24.137Z,13.57
2018-04-27T20:01:53.645Z,11.80
2018-04-27T20:04:22.579Z,13.13
2018-04-27T20:06:51.900Z,13.53
2018-04-27T20:09:21.362Z,13.70
2018-04-27T20:11:51.347Z,13.23
2018-04-27T20:14:27.334Z,13.23
2018-04-27T20:17:04.375Z,11.13
2018-04-27T20:19:50.903Z,12.20
2018-04-27T20:22:21.559Z,13.87
2018-04-27T20:24:52.986Z,12.87
2018-04-27T20:27:21.904Z,13.50
2018-04-27T20:29:55.656Z,12.83
2018-04-27T20:32:29.281Z,13.53
2018-04-27T20:35:05.682Z,14.17
2018-04-27T20:37:37.995Z,13.23
2018-04-27T20:40:09.057Z,14.03
2018-04-27T20:42:41.756Z,14.63
2018-04-27T20:45:10.674Z,16.03
2018-04-27T20:47:40.546Z,13.90
2018-04-27T20:50:09.771Z,18.57
2018-04-27T20:52:38.676Z,15.47
2018-04-27T20:55:12.130Z,14.47
2018-04-27T20:57:41.297Z,14.40
2018-04-27T21:00:11.649Z,18.67
2018-04-27T21:02:42.555Z,19.90
2018-04-27T21:05:12.677Z,15.97
2018-04-27T21:07:41.567Z,16.87
2018-04-27T21:10:10.484Z,18.80
2018-04-27T21:12:46.018Z,19.53
2018-04-27T21:15:17.462Z,21.40
2018-04-27T21:17:51.772Z,16.30
2018-04-27T21:23:33.505Z,17.57
2018-04-27T21:26:07.840Z,18.70
2018-04-27T21:28:42.360Z,19.10
2018-04-27T21:31:15.984Z,19.90
2018-04-27T21:33:53.259Z,21.73
2018-04-27T21:36:30.457Z,19.17
2018-04-27T21:39:03.736Z,20.43
2018-04-27T21:41:52.501Z,18.43
2018-04-27T21:44:22.062Z,17.87
2018-04-27T21:46:55.341Z,18.43
2018-04-27T21:49:24.713Z,21.37
2018-04-27T21:52:02.524Z,21.97
2018-04-27T21:54:32.605Z,32.30
2018-04-27T21:57:09.968Z,23.87
2018-04-27T21:59:49.015Z,27.57
2018-04-27T22:02:45.942Z,23.50
2018-04-27T22:05:32.973Z,38.07
2018-04-27T22:08:02.558Z,22.43
2018-04-27T22:10:31.454Z,26.93
2018-04-27T22:13:07.839Z,32.67
2018-04-27T22:15:40.916Z,26.43
2018-04-27T22:18:14.538Z,24.70
2018-04-27T22:20:48.137Z,22.07
2018-04-27T22:23:21.576Z,23.43
2018-04-27T22:25:53.615Z,24.77
2018-04-27T22:28:26.514Z,21.33
2018-04-27T22:30:55.837Z,24.60
2018-04-27T22:33:29.168Z,32.00
2018-04-27T22:36:14.457Z,26.93
2018-04-27T22:38:57.569Z,30.77
2018-04-27T22:41:26.853Z,23.00
2018-04-27T22:44:02.632Z,24.63
2018-04-27T22:46:39.801Z,37.33
2018-04-27T22:49:19.347Z,24.23
2018-04-27T22:51:54.007Z,25.10
2018-04-27T22:54:36.112Z,24.77
2018-04-27T22:57:13.415Z,23.27
2018-04-27T22:59:42.730Z,23.90
2018-04-27T23:02:11.628Z,23.60
2018-04-27T23:04:44.156Z,39.63
2018-04-27T23:07:16.954Z,27.30
2018-04-27T23:09:54.007Z,28.80
2018-04-27T23:12:23.318Z,24.67
2018-04-27T23:14:54.388Z,26.43
2018-04-27T23:17:23.784Z,26.53
2018-04-27T23:19:53.153Z,35.57
2018-04-27T23:22:30.161Z,28.10
2018-04-27T23:24:59.939Z,29.60
2018-04-27T23:27:30.635Z,26.17
2018-04-27T23:30:01.973Z,27.60
2018-04-27T23:32:37.177Z,25.60
2018-04-27T23:35:06.286Z,27.30
2018-04-27T23:41:02.474Z,27.10
2018-04-27T23:43:31.616Z,29.17
2018-04-27T23:46:00.768Z,24.87
2018-04-27T23:48:35.729Z,23.87
2018-04-27T23:51:10.997Z,26.27
2018-04-27T23:53:47.740Z,40.03
2018-04-27T23:56:23.162Z,29.83
2018-04-27T23:58:56.704Z,26.77
